createdAt,value
2022-10-16T00:01:24.884Z,6.01
2022-10-16T00:03:53.076Z,6.03
2022-10-16T00:06:22.815Z,5.98
2022-10-16T00:08:51.231Z,5.96
2022-10-16T00:11:30.973Z,5.94
2022-10-16T00:14:02.193Z,5.90
2022-10-16T00:16:30.463Z,5.82
2022-10-16T00:18:58.115Z,5.80
2022-10-16T00:21:28.514Z,5.82
2022-10-16T00:24:01.624Z,5.77
2022-10-16T00:26:30.687Z,5.72
2022-10-16T00:28:58.382Z,5.64
2022-10-16T00:31:26.004Z,5.69
2022-10-16T00:33:53.983Z,5.71
2022-10-16T00:36:22.725Z,5.72
2022-10-16T00:38:56.382Z,5.68
2022-10-16T00:41:26.038Z,5.66
2022-10-16T00:44:01.539Z,5.55
2022-10-16T00:46:41.075Z,5.55
2022-10-16T00:49:14.481Z,5.55
2022-10-16T00:51:56.247Z,5.55
2022-10-16T00:54:30.624Z,5.54
2022-10-16T00:57:02.195Z,5.47
2022-10-16T00:59:32.738Z,5.45
2022-10-16T01:02:01.094Z,5.42
2022-10-16T01:04:34.354Z,5.39
2022-10-16T01:07:07.929Z,5.37
2022-10-16T01:10:04.638Z,5.33
2022-10-16T01:13:08.124Z,5.27
2022-10-16T01:15:41.677Z,5.22
2022-10-16T01:18:20.036Z,5.19
2022-10-16T01:20:54.848Z,5.13
2022-10-16T01:23:44.531Z,5.11
2022-10-16T01:26:21.383Z,5.09
2022-10-16T01:28:58.617Z,5.06
2022-10-16T01:31:30.671Z,5.04
2022-10-16T01:34:06.955Z,5.01
2022-10-16T01:36:54.555Z,4.97
2022-10-16T01:39:25.868Z,4.85
2022-10-16T01:42:00.538Z,4.89
2022-10-16T01:44:32.778Z,4.89
2022-10-16T01:47:01.399Z,4.91
2022-10-16T01:49:33.961Z,4.88
2022-10-16T01:52:05.517Z,4.89
2022-10-16T01:54:35.849Z,4.87
2022-10-16T01:57:05.682Z,4.82
2022-10-16T01:59:37.622Z,4.80
2022-10-16T02:02:09.405Z,4.81
2022-10-16T02:04:43.653Z,4.77
2022-10-16T02:07:11.662Z,4.75
2022-10-16T02:09:39.187Z,4.76
2022-10-16T02:12:27.836Z,4.74
2022-10-16T02:14:55.507Z,4.62
2022-10-16T02:17:23.300Z,4.60
2022-10-16T02:19:53.884Z,4.58
2022-10-16T02:22:30.677Z,4.55
2022-10-16T02:25:07.834Z,4.53
2022-10-16T02:27:41.998Z,4.49
2022-10-16T02:30:16.023Z,4.47
2022-10-16T02:32:46.110Z,4.46
2022-10-16T02:35:14.006Z,4.42
2022-10-16T02:37:42.331Z,4.41
2022-10-16T02:40:09.880Z,4.43
2022-10-16T02:42:41.119Z,4.40
2022-10-16T02:45:12.645Z,4.35
2022-10-16T02:47:39.695Z,4.38
2022-10-16T02:50:07.344Z,4.35
2022-10-16T02:52:34.384Z,4.30
2022-10-16T02:55:01.736Z,4.31
2022-10-16T02:57:29.291Z,4.20
2022-10-16T02:59:56.931Z,4.22
2022-10-16T03:02:23.925Z,4.24
2022-10-16T03:04:51.260Z,4.23
2022-10-16T03:07:18.600Z,4.21
2022-10-16T03:09:45.623Z,4.20
2022-10-16T03:12:13.297Z,4.15
2022-10-16T03:14:41.373Z,4.24
2022-10-16T03:17:08.758Z,4.21
2022-10-16T03:22:21.635Z,4.18
2022-10-16T03:24:48.968Z,4.10
2022-10-16T03:27:16.177Z,4.11
2022-10-16T03:29:43.389Z,4.09
2022-10-16T03:32:10.543Z,4.08
2022-10-16T03:34:37.703Z,4.03
2022-10-16T03:37:05.270Z,4.05
2022-10-16T03:39:32.210Z,3.98
2022-10-16T03:41:59.340Z,3.97
2022-10-16T03:44:26.424Z,3.95
2022-10-16T03:46:53.802Z,3.96
2022-10-16T03:49:20.997Z,3.89
2022-10-16T03:51:48.001Z,3.93
2022-10-16T03:54:15.135Z,3.87
2022-10-16T03:56:42.208Z,3.89
2022-10-16T03:59:09.623Z,3.88
2022-10-16T04:01:36.681Z,3.83
2022-10-16T04:04:06.846Z,3.84
2022-10-16T04:06:33.917Z,3.79
2022-10-16T04:09:01.003Z,3.72
2022-10-16T04:11:28.621Z,3.75
2022-10-16T04:13:56.055Z,3.71
2022-10-16T04:16:23.295Z,3.69
2022-10-16T04:18:50.334Z,3.65
2022-10-16T04:21:17.409Z,3.61
2022-10-16T04:23:44.908Z,3.67
2022-10-16T04:26:12.331Z,3.65
2022-10-16T04:28:39.487Z,3.54
2022-10-16T04:31:07.853Z,3.63
2022-10-16T04:33:35.294Z,3.62
2022-10-16T04:36:03.798Z,3.59
2022-10-16T04:38:31.280Z,3.60
2022-10-16T04:40:58.392Z,3.56
2022-10-16T04:43:25.516Z,3.54
2022-10-16T04:45:52.999Z,3.59
2022-10-16T04:48:20.160Z,3.57
2022-10-16T04:50:51.664Z,3.51
2022-10-16T04:53:22.233Z,3.61
2022-10-16T04:55:49.323Z,3.66
2022-10-16T04:58:16.499Z,3.65
2022-10-16T05:00:43.577Z,3.63
2022-10-16T05:03:10.865Z,3.62
2022-10-16T05:05:38.394Z,3.65
2022-10-16T05:08:05.521Z,3.68
2022-10-16T05:10:32.686Z,3.67
2022-10-16T05:12:59.752Z,3.66
2022-10-16T05:15:27.355Z,3.69
2022-10-16T05:17:57.472Z,3.69
2022-10-16T05:20:24.751Z,3.74
2022-10-16T05:22:51.914Z,3.75
2022-10-16T05:25:19.882Z,3.79
2022-10-16T05:27:50.465Z,3.80
2022-10-16T05:30:18.537Z,3.84
2022-10-16T05:32:50.916Z,3.89
2022-10-16T05:35:19.140Z,3.90
2022-10-16T05:37:46.498Z,3.97
2022-10-16T05:40:14.305Z,4.06
2022-10-16T05:42:41.987Z,4.15
2022-10-16T05:45:11.685Z,4.20
2022-10-16T05:47:39.243Z,4.28
2022-10-16T05:50:07.375Z,4.38
2022-10-16T05:52:34.513Z,4.39
2022-10-16T05:55:01.718Z,4.41
2022-10-16T05:57:29.243Z,4.53
2022-10-16T05:59:56.459Z,4.59
2022-10-16T06:02:23.628Z,4.68
2022-10-16T06:04:52.953Z,4.80
2022-10-16T06:07:22.592Z,5.00
2022-10-16T06:09:54.087Z,5.19
2022-10-16T06:12:21.709Z,5.40
2022-10-16T06:14:49.872Z,5.64
2022-10-16T06:17:17.193Z,5.88
2022-10-16T06:19:44.196Z,6.11
2022-10-16T06:22:11.456Z,6.47
2022-10-16T06:24:38.575Z,6.76
2022-10-16T06:27:06.382Z,7.08
2022-10-16T06:29:33.677Z,7.33
2022-10-16T06:32:01.046Z,7.58
2022-10-16T06:34:27.984Z,7.91
2022-10-16T06:36:54.965Z,8.19
2022-10-16T06:39:22.250Z,8.42
2022-10-16T06:41:50.267Z,8.70
2022-10-16T06:44:17.376Z,8.91
2022-10-16T06:46:44.678Z,9.11
2022-10-16T06:49:11.940Z,9.33
2022-10-16T06:51:43.434Z,9.60
2022-10-16T06:54:11.313Z,9.75
2022-10-16T06:56:39.143Z,9.96
2022-10-16T06:59:06.526Z,10.16
2022-10-16T07:01:34.694Z,10.42
2022-10-16T07:04:03.217Z,10.58
2022-10-16T07:06:34.155Z,10.70
2022-10-16T07:09:03.380Z,10.96
2022-10-16T07:11:30.404Z,10.97
2022-10-16T07:13:57.373Z,11.17
2022-10-16T07:16:30.027Z,11.28
2022-10-16T07:19:01.593Z,11.35
2022-10-16T07:21:32.151Z,11.57
2022-10-16T07:24:02.637Z,11.71
2022-10-16T07:26:32.549Z,11.92
2022-10-16T07:29:00.017Z,12.11
2022-10-16T07:31:28.066Z,12.28
2022-10-16T07:33:59.224Z,12.51
2022-10-16T07:36:26.434Z,12.72
2022-10-16T07:38:57.211Z,12.88
2022-10-16T07:41:28.297Z,13.00
2022-10-16T07:43:56.251Z,13.18
2022-10-16T07:46:24.521Z,13.34
2022-10-16T07:48:52.200Z,13.46
2022-10-16T07:51:21.630Z,13.59
2022-10-16T07:53:48.925Z,13.71
2022-10-16T07:56:17.479Z,13.90
2022-10-16T07:58:45.425Z,14.15
2022-10-16T08:01:17.368Z,14.28
2022-10-16T08:03:49.050Z,14.42
2022-10-16T08:06:16.740Z,14.50
2022-10-16T08:08:44.106Z,14.60
2022-10-16T08:11:11.826Z,14.73
2022-10-16T08:13:38.951Z,14.76
2022-10-16T08:16:08.994Z,14.71
2022-10-16T08:18:38.302Z,14.80
2022-10-16T08:21:06.687Z,15.01
2022-10-16T08:23:34.760Z,15.02
2022-10-16T08:26:09.329Z,14.74
2022-10-16T08:28:37.265Z,14.65
2022-10-16T08:31:09.320Z,14.80
2022-10-16T08:33:36.849Z,14.94
2022-10-16T08:36:06.127Z,14.87
2022-10-16T08:38:34.044Z,14.80
2022-10-16T08:41:17.179Z,14.80
2022-10-16T08:44:18.248Z,14.87
2022-10-16T08:47:12.990Z,14.99
2022-10-16T08:49:43.435Z,15.28
2022-10-16T08:52:15.327Z,15.27
2022-10-16T08:54:51.288Z,15.29
2022-10-16T08:57:24.679Z,15.40
2022-10-16T08:59:52.841Z,15.59
2022-10-16T09:02:32.010Z,15.79
2022-10-16T09:05:23.952Z,15.69
2022-10-16T09:08:07.815Z,15.79
2022-10-16T09:10:55.898Z,15.73
2022-10-16T09:13:43.459Z,15.70
2022-10-16T09:16:16.445Z,15.71
2022-10-16T09:19:05.465Z,15.71
2022-10-16T09:21:37.485Z,15.70
2022-10-16T09:24:17.696Z,15.71
2022-10-16T09:26:45.630Z,15.61
2022-10-16T09:29:14.703Z,15.58
2022-10-16T09:31:42.900Z,15.44
2022-10-16T09:34:37.351Z,15.48
2022-10-16T09:37:14.283Z,15.64
2022-10-16T09:39:50.165Z,15.64
2022-10-16T09:42:32.667Z,15.66
2022-10-16T09:45:00.120Z,15.56
2022-10-16T09:47:29.663Z,15.38
2022-10-16T09:50:07.401Z,15.55
2022-10-16T09:52:34.824Z,15.54
2022-10-16T09:55:13.966Z,15.74
2022-10-16T09:57:56.650Z,15.76
2022-10-16T10:00:25.523Z,15.78
2022-10-16T10:05:28.660Z,15.94
2022-10-16T10:08:01.212Z,15.97
2022-10-16T10:10:30.819Z,16.06
2022-10-16T10:12:58.642Z,16.00
2022-10-16T10:15:26.222Z,16.12
2022-10-16T10:17:54.207Z,16.17
2022-10-16T10:20:26.607Z,16.20
2022-10-16T10:22:53.912Z,16.15
2022-10-16T10:25:52.605Z,16.17
2022-10-16T10:28:30.967Z,16.23
2022-10-16T10:31:02.349Z,16.26
2022-10-16T10:33:44.956Z,16.28
2022-10-16T10:36:26.984Z,16.33
2022-10-16T10:39:04.308Z,16.38
2022-10-16T10:41:43.569Z,16.48
2022-10-16T10:44:38.488Z,16.64
2022-10-16T10:47:34.536Z,16.82
2022-10-16T10:50:27.753Z,16.87
2022-10-16T10:53:05.427Z,16.86
2022-10-16T10:55:40.859Z,16.83
2022-10-16T10:58:16.329Z,16.80
2022-10-16T11:00:56.257Z,16.89
2022-10-16T11:03:35.390Z,16.91
2022-10-16T11:06:11.685Z,17.01
2022-10-16T11:09:06.233Z,16.95
2022-10-16T11:11:53.203Z,17.10
2022-10-16T11:14:35.986Z,17.26
2022-10-16T11:17:14.347Z,17.28
2022-10-16T11:19:52.726Z,17.21
2022-10-16T11:22:27.815Z,17.02
2022-10-16T11:25:01.909Z,16.76
2022-10-16T11:27:43.775Z,16.82
2022-10-16T11:30:23.049Z,16.79
2022-10-16T11:33:06.287Z,16.81
2022-10-16T11:36:01.511Z,16.70
2022-10-16T11:38:55.196Z,16.75
2022-10-16T11:42:01.020Z,16.84
2022-10-16T11:44:37.548Z,17.01
2022-10-16T11:50:33.138Z,17.04
2022-10-16T11:53:15.283Z,17.13
2022-10-16T11:55:46.877Z,17.06
2022-10-16T11:58:29.317Z,17.07
2022-10-16T12:01:12.006Z,17.10
2022-10-16T12:04:00.806Z,17.06
2022-10-16T12:06:37.383Z,17.10
2022-10-16T12:09:05.246Z,17.19
2022-10-16T12:11:34.068Z,17.17
2022-10-16T12:14:13.457Z,17.13
2022-10-16T12:16:52.999Z,17.06
2022-10-16T12:19:20.923Z,16.91
2022-10-16T12:21:49.465Z,16.86
2022-10-16T12:24:39.832Z,16.84
2022-10-16T12:27:20.990Z,16.91
2022-10-16T12:29:48.494Z,16.91
2022-10-16T12:32:46.272Z,17.03
2022-10-16T12:35:29.716Z,16.89
2022-10-16T12:38:07.782Z,16.90
2022-10-16T12:40:38.291Z,16.85
2022-10-16T12:43:29.902Z,16.86
2022-10-16T12:46:22.150Z,16.68
2022-10-16T12:49:06.128Z,16.71
2022-10-16T12:51:33.719Z,16.77
2022-10-16T12:54:14.280Z,16.70
2022-10-16T12:57:19.077Z,16.72
2022-10-16T13:00:09.175Z,16.67
2022-10-16T13:03:13.445Z,16.75
2022-10-16T13:06:17.986Z,16.56
2022-10-16T13:09:07.291Z,16.53
2022-10-16T13:12:16.344Z,16.32
2022-10-16T13:15:22.202Z,16.32
2022-10-16T13:17:51.779Z,16.31
2022-10-16T13:20:23.772Z,16.33
2022-10-16T13:23:18.551Z,16.28
2022-10-16T13:26:10.069Z,16.24
2022-10-16T13:28:40.013Z,16.27
2022-10-16T13:31:22.444Z,16.23
2022-10-16T13:33:55.930Z,16.19
2022-10-16T13:36:31.025Z,16.18
2022-10-16T13:39:23.770Z,16.23
2022-10-16T13:42:16.143Z,16.19
2022-10-16T13:44:54.240Z,16.21
2022-10-16T13:47:25.128Z,16.16
2022-10-16T13:50:03.125Z,16.08
2022-10-16T13:52:30.329Z,16.05
2022-10-16T13:55:00.937Z,15.96
2022-10-16T13:57:29.359Z,15.87
2022-10-16T13:59:56.494Z,15.85
2022-10-16T14:02:39.247Z,15.85
2022-10-16T14:05:11.599Z,15.84
2022-10-16T14:07:39.487Z,15.70
2022-10-16T14:10:21.667Z,15.64
2022-10-16T14:13:06.419Z,15.60
2022-10-16T14:15:35.925Z,15.56
2022-10-16T14:18:03.927Z,15.54
2022-10-16T14:20:35.917Z,15.56
2022-10-16T14:23:06.311Z,15.49
2022-10-16T14:25:35.385Z,15.44
2022-10-16T14:28:21.036Z,15.50
2022-10-16T14:31:03.320Z,15.49
2022-10-16T14:33:35.860Z,15.38
2022-10-16T14:36:12.094Z,15.37
2022-10-16T14:38:41.369Z,15.30
2022-10-16T14:41:09.150Z,15.24
2022-10-16T14:43:42.746Z,15.14
2022-10-16T14:49:01.907Z,15.15
2022-10-16T14:51:28.987Z,15.07
2022-10-16T14:53:59.970Z,15.02
2022-10-16T14:56:33.356Z,14.87
2022-10-16T14:59:02.224Z,14.73
2022-10-16T15:01:29.279Z,14.63
2022-10-16T15:03:56.921Z,14.53
2022-10-16T15:06:23.839Z,14.36
2022-10-16T15:08:50.878Z,14.24
2022-10-16T15:11:20.440Z,14.11
2022-10-16T15:13:48.332Z,13.93
2022-10-16T15:16:17.881Z,13.80
2022-10-16T15:18:45.594Z,13.64
2022-10-16T15:21:26.112Z,13.46
2022-10-16T15:23:53.555Z,13.29
2022-10-16T15:26:20.916Z,13.13
2022-10-16T15:28:48.156Z,12.98
2022-10-16T15:31:15.414Z,12.87
2022-10-16T15:33:42.746Z,12.72
2022-10-16T15:36:09.925Z,12.57
2022-10-16T15:38:39.712Z,12.38
2022-10-16T15:41:07.439Z,12.26
2022-10-16T15:43:34.883Z,12.14
2022-10-16T15:46:11.084Z,11.96
2022-10-16T15:48:38.688Z,11.80
2022-10-16T15:51:07.975Z,11.62
2022-10-16T15:53:38.494Z,11.50
2022-10-16T15:56:07.082Z,11.42
2022-10-16T15:58:34.546Z,11.32
2022-10-16T16:01:03.205Z,11.20
2022-10-16T16:05:59.596Z,10.98
2022-10-16T16:08:26.543Z,10.90
2022-10-16T16:11:08.846Z,10.76
2022-10-16T16:13:38.674Z,10.67
2022-10-16T16:16:15.046Z,10.56
2022-10-16T16:18:43.239Z,10.48
2022-10-16T16:21:13.486Z,10.36
2022-10-16T16:23:40.856Z,10.22
2022-10-16T16:26:33.657Z,10.10
2022-10-16T16:29:01.034Z,9.97
2022-10-16T16:31:30.072Z,9.92
2022-10-16T16:33:58.258Z,9.81
2022-10-16T16:36:26.429Z,9.71
2022-10-16T16:38:53.732Z,9.61
2022-10-16T16:41:24.880Z,9.54
2022-10-16T16:43:52.587Z,9.45
2022-10-16T16:46:20.539Z,9.42
2022-10-16T16:48:47.714Z,9.36
2022-10-16T16:51:19.338Z,9.19
2022-10-16T16:53:51.437Z,9.11
2022-10-16T16:56:19.936Z,9.05
2022-10-16T16:58:48.257Z,8.99
2022-10-16T17:01:19.822Z,8.91
2022-10-16T17:03:51.305Z,8.89
2022-10-16T17:06:21.609Z,8.89
2022-10-16T17:08:49.920Z,8.84
2022-10-16T17:11:23.861Z,8.79
2022-10-16T17:13:56.585Z,8.72
2022-10-16T17:16:31.001Z,8.64
2022-10-16T17:19:01.762Z,8.60
2022-10-16T17:21:30.874Z,8.54
2022-10-16T17:23:58.147Z,8.50
2022-10-16T17:26:25.264Z,8.43
2022-10-16T17:28:54.611Z,8.40
2022-10-16T17:31:25.242Z,8.33
2022-10-16T17:33:52.674Z,8.31
2022-10-16T17:36:21.188Z,8.26
2022-10-16T17:38:48.987Z,8.22
2022-10-16T17:41:22.350Z,8.16
2022-10-16T17:43:50.514Z,8.05
2022-10-16T17:46:20.918Z,7.95
2022-10-16T17:48:50.234Z,8.01
2022-10-16T17:51:23.805Z,7.96
2022-10-16T17:53:53.153Z,7.90
2022-10-16T17:56:20.683Z,7.79
2022-10-16T17:58:52.832Z,7.72
2022-10-16T18:01:25.926Z,7.72
2022-10-16T18:04:05.151Z,7.67
2022-10-16T18:06:32.774Z,7.59
2022-10-16T18:09:00.770Z,7.51
2022-10-16T18:11:27.771Z,7.47
2022-10-16T18:13:57.260Z,7.39
2022-10-16T18:16:26.238Z,7.33
2022-10-16T18:18:54.688Z,7.27
2022-10-16T18:21:22.380Z,7.28
2022-10-16T18:23:51.895Z,7.21
2022-10-16T18:26:21.391Z,7.27
2022-10-16T18:28:49.081Z,7.21
2022-10-16T18:31:17.915Z,7.18
2022-10-16T18:33:50.842Z,7.14
2022-10-16T18:36:24.014Z,7.10
2022-10-16T18:38:52.160Z,6.98
2022-10-16T18:41:19.433Z,6.97
2022-10-16T18:43:46.904Z,6.91
2022-10-16T18:46:20.693Z,6.91
2022-10-16T18:48:48.631Z,6.88
2022-10-16T18:51:22.622Z,6.82
2022-10-16T18:53:52.501Z,6.81
2022-10-16T18:56:22.357Z,6.72
2022-10-16T18:58:51.277Z,6.70
2022-10-16T19:01:22.021Z,6.70
2022-10-16T19:03:53.787Z,6.70
2022-10-16T19:06:21.316Z,6.66
2022-10-16T19:08:48.472Z,6.65
2022-10-16T19:11:18.664Z,6.57
2022-10-16T19:13:48.324Z,6.42
2022-10-16T19:16:21.243Z,6.39
2022-10-16T19:18:53.881Z,6.37
2022-10-16T19:21:23.379Z,6.30
2022-10-16T19:23:58.239Z,6.28
2022-10-16T19:26:26.633Z,6.33
2022-10-16T19:28:59.005Z,6.33
2022-10-16T19:31:27.786Z,6.30
2022-10-16T19:33:57.349Z,6.27
2022-10-16T19:36:28.134Z,6.24
2022-10-16T19:39:09.513Z,6.21
2022-10-16T19:41:38.936Z,6.19
2022-10-16T20:06:59.256Z,5.70
2022-10-16T20:13:26.879Z,5.72
2022-10-16T20:20:51.985Z,5.63
2022-10-16T20:26:06.420Z,5.39
2022-10-16T20:36:34.941Z,5.50
2022-10-16T20:39:07.185Z,5.22
2022-10-16T20:42:00.302Z,5.44
2022-10-16T20:51:37.597Z,5.12
2022-10-16T20:54:30.697Z,5.29
2022-10-16T20:57:18.839Z,5.27
2022-10-16T20:59:51.922Z,5.26
2022-10-16T21:06:47.197Z,5.15
2022-10-16T21:09:34.139Z,5.12
2022-10-16T21:23:21.264Z,4.86
2022-10-16T21:26:35.861Z,4.90
2022-10-16T21:51:58.801Z,4.69
2022-10-16T21:54:26.603Z,4.63
2022-10-16T21:56:59.566Z,4.56
2022-10-16T21:59:41.409Z,4.62
2022-10-16T22:02:11.491Z,4.59
2022-10-16T22:04:44.736Z,4.49
2022-10-16T22:07:12.354Z,4.41
2022-10-16T22:09:40.644Z,4.36
2022-10-16T22:12:10.968Z,4.30
2022-10-16T22:14:40.572Z,4.30
2022-10-16T22:17:08.356Z,4.25
2022-10-16T22:19:36.162Z,4.24
2022-10-16T22:22:06.934Z,4.21
2022-10-16T22:24:37.914Z,4.24
2022-10-16T22:27:05.468Z,4.22
2022-10-16T22:29:34.366Z,4.17
2022-10-16T22:32:06.393Z,4.21
2022-10-16T22:34:37.555Z,4.16
2022-10-16T22:37:04.955Z,4.20
2022-10-16T22:39:41.138Z,4.20
2022-10-16T22:42:10.098Z,4.19
2022-10-16T22:44:38.140Z,4.14
2022-10-16T22:47:05.413Z,4.16
2022-10-16T22:49:33.604Z,4.08
2022-10-16T22:52:01.545Z,4.09
2022-10-16T22:54:32.125Z,4.10
2022-10-16T22:56:59.688Z,4.05
2022-10-16T22:59:30.298Z,4.03
2022-10-16T23:01:57.811Z,4.01
2022-10-16T23:04:25.667Z,4.01
2022-10-16T23:06:53.208Z,4.04
2022-10-16T23:09:23.056Z,3.99
2022-10-16T23:11:50.981Z,3.97
2022-10-16T23:14:22.999Z,3.95
2022-10-16T23:16:51.080Z,3.91
2022-10-16T23:19:18.210Z,3.87
2022-10-16T23:21:49.343Z,3.80
2022-10-16T23:24:17.151Z,3.81
2022-10-16T23:26:44.413Z,3.81
2022-10-16T23:29:12.144Z,3.80
2022-10-16T23:31:43.074Z,3.75
2022-10-16T23:34:12.547Z,3.74
2022-10-16T23:36:45.316Z,3.74
2022-10-16T23:39:12.889Z,3.72
2022-10-16T23:41:43.372Z,3.65
2022-10-16T23:44:13.900Z,3.67
2022-10-16T23:46:42.136Z,3.63
2022-10-16T23:49:10.260Z,3.66
2022-10-16T23:51:37.730Z,3.65
2022-10-16T23:54:05.303Z,3.58
2022-10-16T23:56:32.903Z,3.52
2022-10-16T23:59:03.586Z,3.50
